Time;durP1;ratioP1;P1;durP2;ratioP2;P2;SDS_P1;SDS_P2;PMS_P1;PMS_P2;Temp;Humidity;BMP_temperature;BMP_pressure;BME280_temperature;BME280_humidity;BME280_pressure;Samples;Min_cycle;Max_cycle;Signal;HPM_P1;HPM_P2
2022/11/22 05:25:17;;;;;;;3.45;1.33;;;;;;;6.36;100.00;98389.13;5109255;28;20046;-70
2022/11/22 05:27:42;;;;;;;3.08;1.42;;;;;;;6.35;100.00;98388.31;5108088;28;20061;-71
2022/11/22 05:30:08;;;;;;;2.53;1.27;;;;;;;6.34;100.00;98393.78;5109652;28;20085;-70
2022/11/22 05:32:34;;;;;;;4.70;1.23;;;;;;;6.30;100.00;98392.53;5109156;28;20043;-70
2022/11/22 05:34:59;;;;;;;1.90;1.33;;;;;;;6.33;100.00;98402.75;5121608;22;20040;-68
2022/11/22 05:37:25;;;;;;;1.48;1.17;;;;;;;6.31;100.00;98402.91;5106451;28;20519;-67
2022/11/22 05:39:51;;;;;;;6.90;1.20;;;;;;;6.33;100.00;98408.03;5109513;28;20046;-67
2022/11/22 05:42:17;;;;;;;1.67;1.45;;;;;;;6.32;100.00;98409.00;5109062;28;20419;-67
2022/11/22 05:44:42;;;;;;;4.32;1.42;;;;;;;6.27;100.00;98411.44;5118147;28;20096;-68
2022/11/22 05:47:08;;;;;;;2.40;1.30;;;;;;;6.32;100.00;98422.22;5129810;27;20080;-69
2022/11/22 05:49:34;;;;;;;1.20;1.02;;;;;;;6.32;100.00;98425.69;5129730;27;20476;-70
2022/11/22 05:52:00;;;;;;;2.17;1.52;;;;;;;6.38;100.00;98430.22;5129314;27;20024;-68
2022/11/22 05:54:26;;;;;;;2.28;1.25;;;;;;;6.35;100.00;98429.81;5129490;27;20114;-68
2022/11/22 05:56:51;;;;;;;1.63;1.00;;;;;;;6.40;100.00;98436.16;5129511;27;20134;-68
2022/11/22 05:59:16;;;;;;;2.15;1.00;;;;;;;6.48;100.00;98438.66;5129470;27;20088;-68
2022/11/22 06:01:42;;;;;;;7.57;1.48;;;;;;;6.50;100.00;98441.94;5122261;28;20069;-69
2022/11/22 06:04:07;;;;;;;5.38;1.38;;;;;;;6.54;100.00;98447.66;5108781;28;20559;-68
2022/11/22 06:06:33;;;;;;;1.83;1.08;;;;;;;6.61;100.00;98445.91;5108852;28;20039;-68
2022/11/22 06:08:58;;;;;;;3.00;0.90;;;;;;;6.60;100.00;98449.56;5108816;28;20063;-68
2022/11/22 06:11:26;;;;;;;1.52;1.23;;;;;;;6.64;100.00;98458.72;5108319;28;20059;-68
2022/11/22 06:13:57;;;;;;;2.00;0.60;;;;;;;6.61;100.00;98455.66;5108654;28;20032;-68
2022/11/22 06:16:23;;;;;;;1.13;0.90;;;;;;;6.62;100.00;98466.03;5108675;28;20042;-69
2022/11/22 06:18:49;;;;;;;3.95;0.90;;;;;;;6.66;100.00;98469.97;5108664;28;20031;-68
2022/11/22 06:21:19;;;;;;;7.25;1.02;;;;;;;6.71;100.00;98464.88;5108472;28;20032;-69
2022/11/22 06:23:45;;;;;;;4.72;1.40;;;;;;;6.74;100.00;98475.09;5108366;28;20032;-69
2022/11/22 06:26:13;;;;;;;2.05;0.90;;;;;;;6.73;100.00;98478.75;5108422;28;20038;-69
2022/11/22 06:28:39;;;;;;;1.17;0.93;;;;;;;6.69;100.00;98488.09;5108383;28;20054;-69
2022/11/22 06:31:08;;;;;;;2.78;0.93;;;;;;;6.68;100.00;98477.69;5108015;28;20036;-69
2022/11/22 06:33:34;;;;;;;1.08;0.73;;;;;;;6.64;100.00;98469.31;5096687;28;20032;-69
2022/11/22 06:36:04;;;;;;;1.58;0.85;;;;;;;6.65;100.00;98480.72;5094568;28;20491;-69
2022/11/22 06:38:30;;;;;;;3.45;0.95;;;;;;;6.62;100.00;98487.22;5094603;28;20054;-69
2022/11/22 06:41:03;;;;;;;2.10;1.15;;;;;;;6.61;100.00;98485.56;5094313;28;20039;-68
2022/11/22 06:43:29;;;;;;;2.15;1.58;;;;;;;6.59;100.00;98492.91;5094638;28;20036;-69
2022/11/22 06:46:00;;;;;;;3.80;1.50;;;;;;;6.62;100.00;98494.34;5094442;28;20031;-68
2022/11/22 06:48:28;;;;;;;3.25;0.90;;;;;;;6.63;100.00;98493.31;5094460;28;20032;-68
2022/11/22 06:51:20;;;;;;;3.92;1.20;;;;;;;6.60;100.00;98499.00;5094029;28;20044;-69
2022/11/22 06:53:47;;;;;;;5.00;1.70;;;;;;;6.59;100.00;98502.66;5092620;28;20078;-69
2022/11/22 06:56:14;;;;;;;1.85;1.17;;;;;;;6.58;100.00;98506.28;5094356;28;20123;-68
2022/11/22 06:58:40;;;;;;;3.30;1.10;;;;;;;6.59;100.00;98503.47;5094345;28;20036;-68
2022/11/22 07:01:15;;;;;;;2.10;1.20;;;;;;;6.59;100.00;98502.66;5093880;28;20755;-68
2022/11/22 07:03:42;;;;;;;6.47;0.93;;;;;;;6.59;100.00;98506.13;5094090;28;20063;-67
2022/11/22 07:06:08;;;;;;;2.00;1.08;;;;;;;6.58;100.00;98509.75;5094097;28;20046;-68
2022/11/22 07:08:34;;;;;;;5.32;1.50;;;;;;;6.61;100.00;98509.38;5094027;28;20508;-67
2022/11/22 07:11:08;;;;;;;2.50;1.33;;;;;;;6.59;100.00;98514.06;5093720;28;20042;-67
2022/11/22 07:13:34;;;;;;;3.03;1.05;;;;;;;6.58;100.00;98517.69;5094612;28;20044;-63
2022/11/22 07:16:01;;;;;;;3.38;1.20;;;;;;;6.55;100.00;98526.03;5093919;28;20028;-64
2022/11/22 07:18:27;;;;;;;3.50;1.15;;;;;;;6.52;100.00;98529.06;5093898;28;20040;-66
2022/11/22 07:20:59;;;;;;;3.72;0.90;;;;;;;6.51;100.00;98532.69;5093543;28;20131;-68
2022/11/22 07:23:24;;;;;;;1.73;1.10;;;;;;;6.51;100.00;98544.09;5093848;28;20059;-66
2022/11/22 07:25:50;;;;;;;3.10;1.00;;;;;;;6.52;100.00;98544.94;5093805;28;20502;-66
2022/11/22 07:28:15;;;;;;;5.40;1.10;;;;;;;6.52;100.00;98544.94;5093745;28;20056;-68
2022/11/22 07:30:41;;;;;;;2.60;1.05;;;;;;;6.56;100.00;98540.06;5093182;28;20059;-68
2022/11/22 07:33:08;;;;;;;2.67;1.00;;;;;;;6.55;100.00;98538.44;5092384;28;20396;-67
2022/11/22 07:35:34;;;;;;;4.90;1.10;;;;;;;6.54;100.00;98542.91;5093438;28;20115;-68
2022/11/22 07:38:00;;;;;;;2.05;1.13;;;;;;;6.55;100.00;98541.91;5092308;28;20043;-68
2022/11/22 07:40:25;;;;;;;5.20;1.30;;;;;;;6.58;100.00;98554.72;5093197;28;20048;-68
2022/11/22 07:42:51;;;;;;;1.38;1.00;;;;;;;6.58;100.00;98548.63;5093467;28;20116;-67
2022/11/22 07:45:16;;;;;;;2.33;1.13;;;;;;;6.61;100.00;98550.91;5092244;28;20476;-68
2022/11/22 07:47:42;;;;;;;2.10;1.20;;;;;;;6.70;100.00;98563.81;5091974;28;20041;-68
2022/11/22 07:50:08;;;;;;;2.42;1.08;;;;;;;6.72;100.00;98571.56;5093107;28;20420;-68
2022/11/22 07:52:33;;;;;;;1.90;0.98;;;;;;;6.75;100.00;98576.47;5092935;28;20165;-68
2022/11/22 07:54:58;;;;;;;2.13;1.40;;;;;;;6.78;100.00;98587.53;5093091;28;20043;-68
2022/11/22 07:57:24;;;;;;;3.10;1.00;;;;;;;6.83;100.00;98586.94;5093178;28;20497;-68
2022/11/22 07:59:49;;;;;;;1.85;0.93;;;;;;;6.87;100.00;98585.56;5092936;28;20047;-67
2022/11/22 08:02:15;;;;;;;4.10;1.15;;;;;;;6.93;100.00;98590.09;5092949;28;20024;-68
2022/11/22 08:04:41;;;;;;;1.85;0.60;;;;;;;7.00;100.00;98590.97;5092823;28;20039;-67
2022/11/22 08:07:06;;;;;;;2.35;0.73;;;;;;;7.04;100.00;98596.69;5092986;28;20067;-68
2022/11/22 08:09:32;;;;;;;2.25;1.10;;;;;;;7.10;100.00;98595.94;5092835;28;20125;-68
2022/11/22 08:11:57;;;;;;;1.30;0.73;;;;;;;7.16;100.00;98599.66;5092413;28;20039;-67
2022/11/22 08:14:23;;;;;;;1.85;1.35;;;;;;;7.14;100.00;98597.19;5092518;28;20047;-68
2022/11/22 08:16:48;;;;;;;4.28;1.00;;;;;;;7.19;100.00;98600.09;5092770;28;20040;-68
2022/11/22 08:19:16;;;;;;;0.95;0.73;;;;;;;7.23;100.00;98592.56;5092555;28;20040;-68
2022/11/22 08:21:46;;;;;;;5.25;0.98;;;;;;;7.26;100.00;98597.50;5092317;28;20032;-68
2022/11/22 08:24:12;;;;;;;1.50;0.60;;;;;;;7.29;100.00;98591.81;5092399;28;20046;-67
2022/11/22 08:26:37;;;;;;;1.70;1.23;;;;;;;7.34;100.00;98589.41;5092655;28;20024;-68
2022/11/22 08:29:08;;;;;;;1.83;0.98;;;;;;;7.37;100.00;98589.03;5092545;28;20464;-68
2022/11/22 08:31:34;;;;;;;4.63;1.00;;;;;;;7.43;100.00;98584.78;5092154;28;20043;-68
2022/11/22 08:34:00;;;;;;;1.35;0.90;;;;;;;7.44;100.00;98581.13;5092247;28;20071;-68
2022/11/22 08:36:26;;;;;;;5.45;1.17;;;;;;;7.48;100.00;98583.19;5092409;28;20071;-68
2022/11/22 08:38:51;;;;;;;2.72;1.10;;;;;;;7.43;100.00;98569.69;5092297;28;20496;-68
2022/11/22 08:41:16;;;;;;;1.23;0.88;;;;;;;7.55;100.00;98585.88;5091989;28;20165;-68
2022/11/22 08:43:42;;;;;;;1.60;0.80;;;;;;;7.58;100.00;98582.84;5092322;28;20046;-68
2022/11/22 08:46:07;;;;;;;3.50;1.13;;;;;;;7.56;100.00;98582.22;5092168;28;20127;-68
2022/11/22 08:48:35;;;;;;;2.30;0.95;;;;;;;7.56;100.00;98584.84;5092128;28;20125;-68
2022/11/22 08:51:04;;;;;;;1.33;0.93;;;;;;;7.60;100.00;98586.13;5090488;28;20043;-68
2022/11/22 08:53:35;;;;;;;3.25;1.10;;;;;;;7.62;100.00;98581.44;5092063;28;20040;-68
2022/11/22 08:56:02;;;;;;;2.92;0.98;;;;;;;7.64;100.00;98584.72;5091686;28;20040;-68
2022/11/22 08:58:33;;;;;;;3.50;1.17;;;;;;;7.71;100.00;98590.06;5091974;28;20032;-67
2022/11/22 09:01:05;;;;;;;3.38;1.00;;;;;;;7.70;100.00;98589.25;5091787;28;20111;-68
2022/11/22 09:03:32;;;;;;;3.17;0.90;;;;;;;7.76;100.00;98582.31;5091817;28;20138;-68
2022/11/22 09:06:02;;;;;;;0.82;0.70;;;;;;;7.79;100.00;98577.47;5091673;28;20040;-68
2022/11/22 09:08:28;;;;;;;2.72;1.10;;;;;;;7.85;100.00;98573.22;5092364;28;20332;-68
2022/11/22 09:10:53;;;;;;;0.98;0.65;;;;;;;7.95;100.00;98581.63;5091665;28;20029;-67
2022/11/22 09:13:18;;;;;;;7.70;1.17;;;;;;;8.04;100.00;98587.59;5091816;28;20056;-68
2022/11/22 09:15:44;;;;;;;2.15;1.15;;;;;;;8.11;100.00;98588.44;5091717;28;20412;-68
2022/11/22 09:18:09;;;;;;;2.25;1.13;;;;;;;8.19;99.89;98582.97;5091928;28;20119;-68
2022/11/22 09:20:35;;;;;;;1.23;0.73;;;;;;;8.25;98.58;98581.34;5091522;28;20036;-68
2022/11/22 09:23:01;;;;;;;0.70;0.60;;;;;;;8.32;98.94;98580.34;5091702;28;20135;-69
2022/11/22 09:25:27;;;;;;;3.87;1.20;;;;;;;8.37;96.84;98583.25;5091583;28;20081;-68
2022/11/22 09:27:52;;;;;;;2.42;0.70;;;;;;;8.40;97.78;98585.50;5090531;28;20431;-68
2022/11/22 09:30:18;;;;;;;1.15;0.93;;;;;;;8.53;97.64;98592.69;5091372;28;20557;-69
2022/11/22 09:32:43;;;;;;;4.25;1.45;;;;;;;8.53;97.13;98591.88;5091698;28;20062;-69
2022/11/22 09:35:09;;;;;;;2.13;1.10;;;;;;;8.59;96.66;98585.75;5091422;28;20473;-68
2022/11/22 09:37:34;;;;;;;4.03;1.17;;;;;;;8.55;94.65;98577.41;5091528;28;20098;-68
2022/11/22 09:40:00;;;;;;;1.02;0.90;;;;;;;8.53;95.20;98575.94;5091535;28;20079;-68
2022/11/22 09:42:34;;;;;;;1.38;1.05;;;;;;;8.61;95.28;98581.09;5091533;28;20120;-68
2022/11/22 09:45:11;;;;;;;2.67;1.10;;;;;;;8.68;93.68;98592.53;5091532;28;20456;-69
2022/11/22 09:47:45;;;;;;;3.17;1.42;;;;;;;8.76;94.06;98587.03;5091626;28;20036;-68
2022/11/22 09:50:25;;;;;;;2.03;0.88;;;;;;;8.80;91.86;98580.31;5091332;28;20028;-68
2022/11/22 09:52:58;;;;;;;2.58;1.20;;;;;;;8.76;89.88;98597.66;5091572;28;20036;-68
2022/11/22 09:55:40;;;;;;;4.40;0.93;;;;;;;8.71;90.95;98589.47;5091403;28;20028;-68
2022/11/22 09:58:21;;;;;;;3.22;0.82;;;;;;;8.72;91.51;98593.75;5091499;28;20036;-68
2022/11/22 10:00:47;;;;;;;3.92;1.33;;;;;;;8.70;90.35;98595.81;5091136;28;20467;-68
2022/11/22 10:03:47;;;;;;;1.38;0.85;;;;;;;8.66;90.09;98597.22;5091429;28;20047;-68
2022/11/22 10:06:20;;;;;;;1.23;0.95;;;;;;;8.66;90.08;98599.88;5091355;28;20550;-68
2022/11/22 10:08:51;;;;;;;4.80;1.13;;;;;;;8.64;89.51;98596.59;5094106;28;20550;-67
2022/11/22 10:11:22;;;;;;;4.13;1.13;;;;;;;8.55;88.83;98595.97;5094772;28;20089;-68
2022/11/22 10:13:54;;;;;;;5.60;1.13;;;;;;;8.60;87.26;98593.53;5095156;28;20480;-69
2022/11/22 10:16:34;;;;;;;0.55;0.52;;;;;;;8.49;87.16;98593.31;5095116;28;20036;-68
2022/11/22 10:19:26;;;;;;;1.42;0.82;;;;;;;8.57;87.79;98599.25;5095134;28;20522;-68
2022/11/22 10:21:51;;;;;;;4.50;0.70;;;;;;;8.55;86.14;98595.97;5094597;28;20062;-68
2022/11/22 10:24:18;;;;;;;1.40;0.88;;;;;;;8.53;85.58;98587.38;5094813;28;20055;-69
2022/11/22 10:26:44;;;;;;;2.05;0.70;;;;;;;8.57;85.00;98598.44;5094910;28;20361;-68
2022/11/22 10:29:24;;;;;;;1.20;0.85;;;;;;;8.63;84.74;98597.63;5094883;28;20035;-69
2022/11/22 10:32:01;;;;;;;2.05;0.77;;;;;;;8.57;86.17;98599.25;5094361;28;20477;-68
2022/11/22 10:34:59;;;;;;;3.28;0.85;;;;;;;8.66;83.38;98599.88;5094737;28;20036;-69
2022/11/22 10:37:49;;;;;;;3.38;0.90;;;;;;;8.65;84.31;98600.91;5090224;28;20119;-67
2022/11/22 10:40:24;;;;;;;1.55;1.10;;;;;;;8.64;85.05;98600.06;5094276;28;20396;-68
2022/11/22 10:43:09;;;;;;;1.25;0.70;;;;;;;8.66;83.02;98591.91;5094514;28;20557;-68
2022/11/22 10:46:26;;;;;;;4.38;1.08;;;;;;;8.76;85.03;98586.22;5094498;28;20127;-68
2022/11/22 10:48:59;;;;;;;;;;;;;;;8.89;83.48;98595.03;5032449;28;20605;-68
2022/11/22 10:51:39;;;;;;;1.38;0.75;;;;;;;8.92;81.93;98594.59;5031508;28;19917;-68
2022/11/22 10:54:32;;;;;;;2.72;1.15;;;;;;;9.00;83.24;98590.13;5074737;28;20043;-68
2022/11/22 10:57:22;;;;;;;2.22;0.93;;;;;;;9.08;81.07;98588.09;5094255;28;20074;-68
2022/11/22 11:00:18;;;;;;;3.47;1.20;;;;;;;9.09;80.45;98589.72;5094306;28;20124;-68
2022/11/22 11:02:46;;;;;;;1.80;0.68;;;;;;;9.13;80.95;98592.81;5094204;28;20032;-68
2022/11/22 11:05:18;;;;;;;1.33;0.77;;;;;;;9.17;80.50;98594.03;5094097;28;20047;-68
2022/11/22 11:07:47;;;;;;;0.90;0.70;;;;;;;9.25;80.46;98599.13;5094084;28;20489;-68
2022/11/22 11:10:28;;;;;;;4.60;1.08;;;;;;;9.33;80.59;98593.63;5093737;28;20036;-68
2022/11/22 11:13:00;;;;;;;5.63;1.13;;;;;;;9.39;80.74;98600.78;5094110;28;20466;-69
2022/11/22 11:15:43;;;;;;;1.98;0.82;;;;;;;9.43;77.08;98594.00;5093973;28;20399;-68
2022/11/22 11:18:18;;;;;;;3.88;1.00;;;;;;;9.44;75.53;98592.16;5093927;28;20059;-68
2022/11/22 11:20:46;;;;;;;2.25;1.17;;;;;;;9.47;76.20;98587.28;5093590;28;20085;-69
2022/11/22 11:23:13;;;;;;;1.77;0.70;;;;;;;9.53;76.49;98582.97;5093884;28;20044;-69
2022/11/22 11:25:41;;;;;;;2.50;0.98;;;;;;;9.58;72.88;98580.50;5093731;28;20123;-68
2022/11/22 11:28:26;;;;;;;3.83;1.38;;;;;;;9.67;69.69;98565.97;5093691;28;20048;-68
2022/11/22 11:30:54;;;;;;;4.07;0.60;;;;;;;9.61;68.47;98560.66;5093342;28;20114;-68
2022/11/22 11:33:33;;;;;;;;;;;;;;;9.70;70.42;98559.41;5094068;28;20538;-67
2022/11/22 11:36:04;;;;;;;1.40;0.55;;;;;;;9.72;68.07;98560.84;5099171;22;20420;-63
2022/11/22 11:38:33;;;;;;;4.88;0.95;;;;;;;9.84;67.45;98562.84;5073337;28;20036;-64
2022/11/22 11:41:19;;;;;;;0.88;0.80;;;;;;;9.89;67.22;98561.19;5072794;28;20142;-63
2022/11/22 11:43:45;;;;;;;2.03;0.88;;;;;;;9.89;64.32;98563.84;5073113;28;20041;-64
2022/11/22 11:46:19;;;;;;;2.03;1.10;;;;;;;9.91;65.89;98563.63;5072910;28;20044;-63
2022/11/22 11:48:45;;;;;;;0.70;0.70;;;;;;;9.84;63.86;98558.34;5072990;28;20086;-63
2022/11/22 11:51:21;;;;;;;7.40;1.20;;;;;;;9.83;63.10;98553.25;5072515;28;20477;-63
2022/11/22 11:53:57;;;;;;;2.38;1.10;;;;;;;9.87;62.79;98563.25;5071599;28;20047;-63
2022/11/22 11:56:29;;;;;;;3.20;1.13;;;;;;;9.92;62.67;98546.69;5072762;28;20146;-63
2022/11/22 11:58:57;;;;;;;5.47;0.90;;;;;;;9.88;61.39;98551.59;5072772;28;20029;-63
2022/11/22 12:01:24;;;;;;;;;;;;;;;9.93;60.78;98545.66;5072676;28;20036;-64
2022/11/22 12:03:56;;;;;;;1.65;0.73;;;;;;;9.90;61.02;98541.56;5072516;28;19920;-63
2022/11/22 12:06:28;;;;;;;1.10;0.68;;;;;;;9.91;60.86;98539.72;5072505;28;20097;-63
2022/11/22 12:08:53;;;;;;;2.97;0.90;;;;;;;9.94;62.80;98539.31;5071119;28;20405;-63
2022/11/22 12:11:41;;;;;;;3.22;1.00;;;;;;;10.04;61.11;98527.19;5070849;28;20054;-64
2022/11/22 12:14:11;;;;;;;2.15;0.70;;;;;;;9.97;62.01;98512.28;5072296;28;20043;-63
2022/11/22 12:16:42;;;;;;;3.25;0.77;;;;;;;9.95;61.31;98517.81;5072159;28;20473;-65
2022/11/22 12:19:25;;;;;;;0.55;0.43;;;;;;;10.01;61.50;98522.28;5072183;28;20044;-64
2022/11/22 12:22:16;;;;;;;1.80;0.77;;;;;;;10.01;61.07;98513.50;5071766;28;20032;-64
2022/11/22 12:24:52;;;;;;;2.83;1.15;;;;;;;10.11;60.73;98508.53;5072154;28;20040;-64
2022/11/22 12:27:18;;;;;;;2.25;0.90;;;;;;;10.14;60.61;98502.78;5072074;28;20040;-64
2022/11/22 12:29:44;;;;;;;7.93;0.70;;;;;;;10.16;60.17;98497.25;5071973;28;20094;-65
2022/11/22 12:32:18;;;;;;;2.72;0.75;;;;;;;10.17;59.48;98505.03;5071557;28;20046;-63
2022/11/22 12:34:57;;;;;;;2.75;1.52;;;;;;;10.24;61.28;98494.38;5071825;28;20041;-64
2022/11/22 12:37:33;;;;;;;5.15;0.70;;;;;;;10.31;61.43;98500.50;5070592;28;20036;-64
2022/11/22 12:40:03;;;;;;;0.73;0.57;;;;;;;10.35;62.69;98492.88;5071880;28;20036;-63
2022/11/22 12:42:33;;;;;;;0.93;0.70;;;;;;;10.40;60.55;98493.88;5071968;28;20020;-63
2022/11/22 12:45:14;;;;;;;3.63;1.10;;;;;;;10.41;60.39;98490.19;5071910;28;20068;-63
2022/11/22 12:47:44;;;;;;;1.52;0.95;;;;;;;10.40;61.53;98496.53;5071946;28;20401;-63
2022/11/22 12:50:23;;;;;;;3.28;0.98;;;;;;;10.39;60.39;98491.44;5070984;28;20123;-63
2022/11/22 12:52:57;;;;;;;0.98;0.50;;;;;;;10.40;60.90;98499.19;5071694;28;20032;-64
2022/11/22 12:55:25;;;;;;;2.05;0.77;;;;;;;10.43;61.72;98490.78;5070386;28;20093;-64
2022/11/22 12:58:17;;;;;;;0.85;0.70;;;;;;;10.40;63.12;98488.53;5072003;28;20414;-64
2022/11/22 13:00:59;;;;;;;1.98;0.60;;;;;;;10.46;62.93;98495.69;5065247;28;20485;-64
2022/11/22 13:03:43;;;;;;;0.52;0.50;;;;;;;10.48;63.19;98485.63;5071648;28;20033;-62
2022/11/22 13:06:10;;;;;;;3.05;0.73;;;;;;;10.40;66.27;98491.22;5070177;28;20386;-63
2022/11/22 13:08:37;;;;;;;0.73;0.60;;;;;;;10.32;63.26;98489.63;5071727;28;20029;-63
2022/11/22 13:11:17;;;;;;;1.35;0.95;;;;;;;10.27;62.24;98484.13;5071097;28;20111;-66
2022/11/22 13:13:46;;;;;;;1.38;0.68;;;;;;;10.27;64.56;98488.63;5071373;28;20039;-64
2022/11/22 13:16:12;;;;;;;2.70;0.73;;;;;;;10.27;63.28;98486.78;5071303;28;20041;-63
2022/11/22 13:18:57;;;;;;;1.15;0.47;;;;;;;10.18;65.53;98490.69;5070227;28;20098;-64
2022/11/22 13:21:38;;;;;;;0.77;0.32;;;;;;;10.15;63.41;98490.28;5071391;28;20115;-64
2022/11/22 13:24:26;;;;;;;0.55;0.40;;;;;;;10.12;63.36;98504.84;5071269;28;20032;-65
2022/11/22 13:27:01;;;;;;;1.73;0.88;;;;;;;10.06;63.16;98503.84;5071401;28;20054;-63
2022/11/22 13:29:29;;;;;;;1.08;0.45;;;;;;;10.03;63.93;98503.44;5071425;28;20039;-65
2022/11/22 13:32:15;;;;;;;1.55;0.45;;;;;;;9.95;64.41;98501.84;5071002;28;20475;-63
2022/11/22 13:34:59;;;;;;;0.75;0.52;;;;;;;9.91;65.65;98499.81;5071115;28;20122;-62
2022/11/22 13:37:25;;;;;;;1.42;0.65;;;;;;;9.88;64.18;98503.72;5071037;28;20036;-64
2022/11/22 13:39:51;;;;;;;1.77;0.70;;;;;;;9.88;65.71;98490.44;5071273;28;20090;-63
2022/11/22 13:42:26;;;;;;;0.60;0.60;;;;;;;9.75;65.15;98501.94;5071380;28;20040;-64
2022/11/22 13:44:54;;;;;;;0.93;0.77;;;;;;;9.78;66.24;98498.06;5075224;28;20126;-63
2022/11/22 13:47:22;;;;;;;1.75;0.60;;;;;;;9.78;65.19;98506.84;5073842;28;20037;-61
2022/11/22 13:49:49;;;;;;;2.50;0.63;;;;;;;9.62;64.90;98499.31;5075144;28;20123;-62
2022/11/22 13:52:15;;;;;;;0.95;0.50;;;;;;;9.66;65.76;98502.38;5074728;28;20037;-62
2022/11/22 13:54:40;;;;;;;2.03;0.50;;;;;;;9.69;66.12;98505.41;5075047;28;20071;-62
2022/11/22 13:57:27;;;;;;;0.70;0.60;;;;;;;9.65;66.52;98501.56;5075002;28;20025;-62
2022/11/22 14:00:14;;;;;;;0.52;0.52;;;;;;;9.60;67.20;98509.34;5074852;28;20035;-63
2022/11/22 14:02:49;;;;;;;1.08;0.40;;;;;;;9.63;67.29;98505.44;5074897;28;20062;-58
2022/11/22 14:05:33;;;;;;;0.40;0.40;;;;;;;9.62;67.17;98496.66;5074762;28;20396;-64
2022/11/22 14:08:00;;;;;;;0.65;0.40;;;;;;;9.62;67.90;98503.81;5074884;28;20146;-60
2022/11/22 14:10:36;;;;;;;0.30;0.30;;;;;;;9.53;69.89;98503.22;5072876;28;20174;-63
2022/11/22 14:13:31;;;;;;;0.82;0.47;;;;;;;9.57;68.89;98507.09;5074650;28;20037;-63
2022/11/22 14:16:14;;;;;;;0.47;0.22;;;;;;;9.56;70.89;98510.78;5074786;28;20036;-61
2022/11/22 14:18:45;;;;;;;2.72;0.82;;;;;;;9.46;68.91;98511.22;5074588;28;20032;-63
2022/11/22 14:21:29;;;;;;;0.50;0.30;;;;;;;9.49;69.93;98512.63;5074687;28;20051;-63
2022/11/22 14:24:17;;;;;;;1.48;0.77;;;;;;;9.43;69.30;98514.28;5074570;28;20517;-61
2022/11/22 14:27:10;;;;;;;1.05;0.30;;;;;;;9.39;69.31;98515.75;5074607;28;20032;-63
2022/11/22 14:29:50;;;;;;;0.98;0.55;;;;;;;9.32;71.67;98517.56;5074407;28;20100;-64
2022/11/22 14:32:22;;;;;;;0.20;0.20;;;;;;;9.32;73.61;98541.47;5074131;28;20040;-62
2022/11/22 14:35:03;;;;;;;1.83;0.57;;;;;;;9.24;72.22;98537.19;5074171;28;20055;-61
2022/11/22 14:37:28;;;;;;;3.88;0.77;;;;;;;9.21;74.55;98537.63;5074342;28;20489;-64
2022/11/22 14:40:06;;;;;;;0.40;0.40;;;;;;;9.10;74.35;98540.06;5074240;28;20024;-66
2022/11/22 14:42:34;;;;;;;1.40;0.73;;;;;;;9.09;74.33;98539.25;5074023;28;20062;-63
2022/11/22 14:45:10;;;;;;;1.30;0.60;;;;;;;8.98;76.62;98546.00;5074141;28;20117;-62
2022/11/22 14:48:00;;;;;;;0.47;0.45;;;;;;;8.95;77.37;98548.25;5074221;28;20485;-66
2022/11/22 14:50:43;;;;;;;0.75;0.50;;;;;;;8.94;78.51;98558.06;5064634;28;20181;-65
2022/11/22 14:53:25;;;;;;;0.50;0.50;;;;;;;8.83;78.19;98563.16;5072423;28;20063;-65
2022/11/22 14:56:01;;;;;;;0.40;0.38;;;;;;;8.83;79.61;98573.78;5073858;28;20392;-65
2022/11/22 14:58:28;;;;;;;1.05;0.80;;;;;;;8.72;79.99;98575.19;5073956;28;20039;-64
2022/11/22 15:01:24;;;;;;;1.33;0.68;;;;;;;8.66;81.66;98582.09;5073563;28;20043;-64
2022/11/22 15:04:08;;;;;;;0.80;0.65;;;;;;;8.65;82.19;98575.16;5073869;28;20028;-64
2022/11/22 15:06:51;;;;;;;1.08;0.43;;;;;;;8.58;83.08;98578.81;5053700;28;20036;-62
2022/11/22 15:09:40;;;;;;;3.10;0.70;;;;;;;8.51;84.32;98575.34;5053773;28;20045;-64
2022/11/22 15:12:11;;;;;;;0.50;0.50;;;;;;;8.50;85.42;98573.72;5053360;28;20037;-64
2022/11/22 15:15:01;;;;;;;1.45;0.50;;;;;;;8.39;85.72;98581.22;5053579;28;20051;-64
2022/11/22 15:17:29;;;;;;;0.75;0.55;;;;;;;8.39;86.97;98575.91;5052586;28;20044;-65
2022/11/22 15:19:55;;;;;;;;;;;;;;;8.33;87.70;98579.34;5052586;28;20708;-65
2022/11/22 15:22:27;;;;;;;0.60;0.60;;;;;;;8.31;87.23;98581.38;5053398;28;19923;-64
2022/11/22 15:24:57;;;;;;;3.28;0.65;;;;;;;8.30;88.26;98581.59;5052253;28;20482;-64
2022/11/22 15:27:31;;;;;;;0.30;0.30;;;;;;;8.31;88.83;98585.88;5053270;28;20408;-64
2022/11/22 15:30:16;;;;;;;9.82;4.50;;;;;;;8.25;89.41;98592.78;5053321;28;20272;-64
2022/11/22 15:32:46;;;;;;;12.60;3.55;;;;;;;8.21;90.39;98599.47;5053282;28;20127;-64
2022/11/22 15:35:22;;;;;;;2.50;1.35;;;;;;;8.21;90.31;98601.31;5053310;28;20101;-64
2022/11/22 15:38:03;;;;;;;1.98;0.95;;;;;;;8.15;91.06;98608.25;5053175;28;20040;-64
2022/11/22 15:40:35;;;;;;;5.22;1.33;;;;;;;8.12;93.03;98608.63;5052770;28;20040;-64
2022/11/22 15:43:02;;;;;;;1.38;0.77;;;;;;;8.09;93.20;98611.69;5053051;28;20062;-64
2022/11/22 15:45:29;;;;;;;0.95;0.65;;;;;;;8.08;94.82;98620.63;5052862;28;20029;-64
2022/11/22 15:47:59;;;;;;;5.57;2.20;;;;;;;8.04;95.95;98620.22;5052886;28;20532;-64
2022/11/22 15:50:25;;;;;;;4.28;1.10;;;;;;;8.00;95.95;98628.78;5052480;28;20040;-64
2022/11/22 15:53:06;;;;;;;1.50;0.85;;;;;;;7.97;97.28;98626.53;5052877;28;20394;-64
2022/11/22 15:55:31;;;;;;;1.13;0.80;;;;;;;7.88;97.94;98637.25;5052777;28;20043;-65
2022/11/22 15:57:57;;;;;;;6.10;1.10;;;;;;;7.82;98.54;98642.53;5051545;28;20033;-65
2022/11/22 16:00:25;;;;;;;2.33;0.90;;;;;;;7.84;98.60;98643.16;5051269;28;20615;-64
2022/11/22 16:03:01;;;;;;;1.00;0.70;;;;;;;7.79;99.67;98649.03;5052714;28;20107;-64
2022/11/22 16:05:35;;;;;;;2.53;0.88;;;;;;;7.76;100.00;98646.78;5051709;28;20028;-65
2022/11/22 16:08:01;;;;;;;3.13;1.23;;;;;;;7.76;100.00;98660.03;5052782;28;20033;-64
2022/11/22 16:10:36;;;;;;;2.65;1.05;;;;;;;7.70;100.00;98663.47;5052187;28;20041;-64
2022/11/22 16:13:19;;;;;;;1.23;0.60;;;;;;;7.65;100.00;98663.22;5052446;28;20040;-65
2022/11/22 16:16:03;;;;;;;2.55;1.48;;;;;;;7.70;100.00;98660.81;5052482;28;20474;-65
2022/11/22 16:18:29;;;;;;;2.10;1.00;;;;;;;7.60;100.00;98662.97;5052315;28;20056;-64
2022/11/22 16:21:27;;;;;;;1.75;0.77;;;;;;;7.56;100.00;98664.34;5050734;28;20133;-64
2022/11/22 16:24:31;;;;;;;1.65;0.73;;;;;;;7.50;100.00;98667.81;5052197;28;20033;-64
2022/11/22 16:27:04;;;;;;;5.45;1.73;;;;;;;7.41;100.00;98667.09;4990769;28;20399;-64
2022/11/22 16:29:33;;;;;;;1.60;1.20;;;;;;;7.34;100.00;98671.53;5045458;28;20067;-64
2022/11/22 16:32:19;;;;;;;3.47;1.30;;;;;;;7.33;100.00;98660.09;5051953;28;20040;-64
2022/11/22 16:34:46;;;;;;;3.83;1.50;;;;;;;7.26;100.00;98669.00;5051487;28;20140;-64
2022/11/22 16:37:31;;;;;;;4.88;1.10;;;;;;;7.29;100.00;98658.84;5052096;28;20044;-64
2022/11/22 16:39:57;;;;;;;1.15;0.90;;;;;;;7.25;100.00;98662.91;5051878;28;20044;-64
2022/11/22 16:42:24;;;;;;;1.23;0.80;;;;;;;7.26;100.00;98656.59;5051946;28;20037;-64
2022/11/22 16:44:50;;;;;;;1.33;0.80;;;;;;;7.25;100.00;98654.13;5052332;28;20064;-64
2022/11/22 16:47:19;;;;;;;3.70;1.10;;;;;;;7.30;100.00;98659.66;5052027;28;20097;-64
2022/11/22 16:49:46;;;;;;;2.58;1.17;;;;;;;7.29;100.00;98664.13;5050763;28;20041;-65
2022/11/22 16:52:12;;;;;;;1.02;0.93;;;;;;;7.28;100.00;98651.91;5051517;28;20037;-64
2022/11/22 16:54:38;;;;;;;1.85;0.82;;;;;;;7.26;100.00;98651.28;5051749;28;20036;-63
2022/11/22 16:57:10;;;;;;;0.88;0.88;;;;;;;7.30;100.00;98662.31;5051668;28;20486;-64
2022/11/22 16:59:36;;;;;;;1.05;0.95;;;;;;;7.34;100.00;98663.56;5051658;28;20044;-64
2022/11/22 17:02:01;;;;;;;0.52;0.52;;;;;;;7.33;100.00;98659.28;5050088;28;20086;-64
2022/11/22 17:04:27;;;;;;;1.00;0.70;;;;;;;7.31;100.00;98662.13;5051462;28;20498;-62
2022/11/22 17:06:52;;;;;;;3.67;0.80;;;;;;;7.34;100.00;98660.94;5051433;28;20052;-62
2022/11/22 17:09:18;;;;;;;1.23;1.08;;;;;;;7.32;100.00;98663.78;5051600;28;20025;-64
2022/11/22 17:11:44;;;;;;;1.38;0.93;;;;;;;7.35;100.00;98666.03;5049837;28;20104;-64
2022/11/22 17:14:14;;;;;;;5.35;1.00;;;;;;;7.37;100.00;98659.72;5051497;28;20064;-64
2022/11/22 17:16:40;;;;;;;2.90;1.63;;;;;;;7.34;100.00;98656.44;5051320;28;20048;-64
2022/11/22 17:19:06;;;;;;;3.40;1.70;;;;;;;7.35;100.00;98655.44;5050248;28;20093;-65
2022/11/22 17:21:32;;;;;;;4.10;2.25;;;;;;;7.37;100.00;98657.91;5051043;28;20111;-62
2022/11/22 17:24:00;;;;;;;12.93;5.15;;;;;;;7.39;100.00;98657.72;5051203;28;20052;-62
2022/11/22 17:26:26;;;;;;;7.53;2.17;;;;;;;7.41;100.00;98671.56;5051353;28;20040;-69